Текущая Т° на юге МО

Полезные ссылки:
Метеоцентр.Азия - наш сайт с высокодетализированными прогнозами погоды по пунктам Pоссии и мира
Облегчённая версия Метеоклуба (для смартфонов)

Текущая Т° на юге МО

Сейчас в Метеоклубе:
Участников - 1 [ Mischel ]
Максимальное одновременное количество посетителей: 308 [2 Ноя 2013 22:42]
Гостей - 296 / Участников - 12

 - Начало - Ответить - Статистика - Pегистрация - Поиск -

МЕТЕОКЛУБ : независимое сообщество любителей метеорологии (Европа и Азия) : ФОРУМ О ПОГОДЕ И ПРИРОДЕ / Метеорологические приборы и методики наблюдений / Текущая Т° на юге МО
<< . 1 . 2 . 3 . 4 . 5 . 6 . 7 . 8 . 9 . 10 ... 53 . 54 . >>
Автор Сообщение
ded
Участник

наро-фоМИНСК
# Дата: 11 Авг 2008 07:12


Кашира - самое теплое место в Московской области 10 августа +24,6
Самое холодное место (днем) - Быково +19,1 и ВВЦ +19,2.

LESS
Участник

Приокский лесс на юге МО
# Дата: 11 Авг 2008 09:42


ded

Кашира - самое теплое место в Московской области 10 августа +24,6
Самое холодное место (днем) - Быково +19,1 и ВВЦ +19,2.


Что и пугает. Быково, как утверждал в своё время Климатолог, это известная печка в МО (т.е. метеостанция там орографически расположена таким образом, что Твозд немного завышается относительно общего нормального (ожидаемого, так сказать) фона Твозд по региону. А если ещё и Кашира это самое Быково перещеголяет, то тогда вообще капец.

LESS
Участник

Приокский лесс на юге МО
# Дата: 13 Авг 2008 13:03


На юге МО Твозд уже повысилась до +26* С. И это только середина дня!

LESS
Участник

Приокский лесс на юге МО
# Дата: 15 Авг 2008 09:19


Весело тройка лидеров по Тмакс для МО за минувшие метеостуки выглядит:

Кашира +31.4* С
Коломна +33.2* С
и....
ЧЕРУСТИ +32.5* С

У последних в "яме" там какой-то свой резко-континентальный мезоклимат, не иначе: то выхолаживаются сильнее всех зимой, то прогреваются сильнее всех летом.

LESS
Участник

Приокский лесс на юге МО
# Дата: 15 Авг 2008 23:11


В 22:00 МСК в Кашире Твозд 23.8* С (это на метеостанции, а в городских условиях вообще +27* С: как на южном курорте в летнюю ночь), а в Домодедово МЕТАР декларирует ужЕ +19* С. Странно, это связано у нас тут с приближающейся грозой (такое тепло) или с чем?

Anaxagoras
Участник

# Дата: 15 Авг 2008 23:50


У последних в "яме" там какой-то свой резко-континентальный мезоклимат, не иначе: то выхолаживаются сильнее всех зимой, то прогреваются сильнее всех летом.
LESS

Так совсем недалеко к югу от Риги (м-ст. в Елгаве) такая же местность - очень холодные ночи и очень тёплые дни. Нередко Тмакс >+30 чередуются Тмин <+10, и зимой ужасно холодно.

MrX
Участник

СЗФО
# Дата: 17 Авг 2008 17:14


Черусти +34!

LESS
Участник

Приокский лесс на юге МО
# Дата: 17 Авг 2008 18:56


MrX

Черусти +34!

Отметил этот факт в ежедневной ветке. Да, у нас тут что-то жуткое и одновременно потрясающее с погодой творится. Когда не светит Солнце (а его сейчас скрыла плотная облачность), и при этом из подъезда выходишь и просто "плывёшь" в душной массе воздушной - это нечто...

MrX
Участник

СЗФО
# Дата: 17 Авг 2008 19:11


Да у нас также. ;-))) Звонил знакомому, у него в тени на термометре +31,5.

ded
Участник

наро-фоМИНСК
# Дата: 31 Авг 2008 07:49


LESS
Кашира - самое мокрое место в Московской области - 25 мм (3+22) за ночь и день 30 августа. Так держать, товарищи.

LESS
Участник

Приокский лесс на юге МО
# Дата: 31 Авг 2008 12:29


ded

И самое холодное: Тмин минувшей ночи +7.7* С. Холоднее только в Волоколамске и мистическом МИХАЙЛОВСКОМ.

LESS
Участник

Приокский лесс на юге МО
# Дата: 31 Авг 2008 21:16


Сегодня в Кашире и в Москве (да и, похоже, во всей МО, за исключением, разве что, "инопланетной" НЕМЧИНОФФКИ, Тмакс будет двузначной: так и не случился летний день в истории, когда Тмакс оказалась бы ниже +10* С !!!

А вот завтра... Что-то жуткое ожидается.

ded
Участник

наро-фоМИНСК
# Дата: 13 Сен 2008 20:49


LESS
Что-то жуткое ожидается.

На 19-00 Москвы почти по всем метеостанциям Подмосковья +11...+12 и только в Кашире +8,8 :( http://meteo.rhm.ru/mo/mo.php
Безобразие какое-то.

LESS
Участник

Приокский лесс на юге МО
# Дата: 13 Сен 2008 21:57


ded

Да, мёрзнем тут!

ded
Участник

наро-фоМИНСК
# Дата: 14 Сен 2008 07:22


LESS
Вчерашние максимумы в Подмосковье везде двузначные, а в Кашире однозначный. :(

LESS
Участник

Приокский лесс на юге МО
# Дата: 14 Сен 2008 14:58


ded

Сегодня теплее не стало.

slava31
Участник

Монино
# Дата: 15 Сен 2008 08:16


теперь Кашира стала полюсом холода в МО __+4 Тмин на сегодня

LESS
Участник

Приокский лесс на юге МО
# Дата: 15 Сен 2008 08:32


slava31

Да, ночью жутко холодно. Утеплились как могли.

ded
Участник

наро-фоМИНСК
# Дата: 5 Окт 2008 06:11


LESS
Да, ночью жутко холодно. Утеплились как могли.

Куда что девалось. Вчера максимум +20,0 в Кашире. Бабье лето №2 в самом разгаре. И, как по заказу, именно на выходные.

LESS
Участник

Приокский лесс на юге МО
# Дата: 5 Окт 2008 10:21


ded

В Коломне за минувшие метеосутки Тмакс = +21.4* С (вторые сутки подряд).

На ВВЦ ночь была снова тёплой: Тмин +10.8* С!

LESS
Участник

Приокский лесс на юге МО
# Дата: 22 Дек 2008 09:56


Чтобы в чужих ветках на меня не ругались за большой объём выложенных в сообщение данных, пофлудую немного в своей теме. Вот так выглядит МЕТАР за последние сутки по "Домодедово". Просто красота! Как зимой на Экваторе: никаких колебаний...

UUDD 220630Z 16005MPS CAVOK M12/M13 Q1023 64010060 14150055 NOSIG=
UUDD 220600Z 16005MPS CAVOK M12/M14 Q1023 64010060 14150055 NOSIG=
UUDD 220530Z 16004MPS CAVOK M12/M14 Q1023 64010060 14150055 NOSIG=
UUDD 220500Z 16005MPS CAVOK M12/M14 Q1023 64010060 14150055 NOSIG=
UUDD 220430Z 16005MPS CAVOK M13/M14 Q1024 64010060 14150055 NOSIG=
UUDD 220400Z 15005MPS CAVOK M12/M13 Q1024 64010060 14150055 NOSIG=
UUDD 220330Z 16005MPS CAVOK M12/M13 Q1024 64010060 14150055 NOSIG=
UUDD 220300Z 16004MPS CAVOK M12/M13 Q1024 64010060 14150055 NOSIG=
UUDD 220230Z 16004MPS CAVOK M12/M13 Q1025 64010060 14150060 NOSIG=
UUDD 220200Z 16004MPS CAVOK M12/M13 Q1025 64010060 14150060 NOSIG=
UUDD 220130Z 17004MPS CAVOK M11/M13 Q1025 64010060 14150060 NOSIG=
UUDD 220100Z 17004MPS CAVOK M11/M13 Q1025 64010060 14150060 NOSIG=
UUDD 220030Z 16004MPS CAVOK M11/M13 Q1025 64010060 14150060 NOSIG=
UUDD 220000Z 16004MPS CAVOK M11/M13 Q1026 64010060 14150060 NOSIG=
UUDD 212330Z 16004MPS CAVOK M11/M13 Q1026 64010060 14150060 NOSIG=
UUDD 212300Z 16004MPS CAVOK M11/M13 Q1026 64010060 14150060 NOSIG=
UUDD 212230Z 17003MPS CAVOK M11/M13 Q1026 64010060 14150060 NOSIG=
UUDD 212200Z 15004MPS CAVOK M11/M13 Q1026 64010060 14150060 NOSIG=
UUDD 212130Z 17005MPS CAVOK M11/M12 Q1026 64010060 14150060 NOSIG=
UUDD 212100Z 16005MPS CAVOK M11/M12 Q1026 64010060 14150060 NOSIG=
UUDD 212030Z 16005MPS CAVOK M11/M12 Q1026 64010060 14150060 NOSIG=
UUDD 212000Z 16005MPS CAVOK M10/M12 Q1026 64010060 14150060 NOSIG=
UUDD 211930Z 16006MPS CAVOK M10/M12 Q1026 64010060 14150060 NOSIG=
UUDD 211900Z 16005MPS CAVOK M11/M12 Q1026 64010060 14010060 NOSIG=
UUDD 211830Z 16006MPS CAVOK M10/M12 Q1026 64010060 14010060 NOSIG=
UUDD 211800Z 15006MPS CAVOK M10/M12 Q1026 64010060 14010060 NOSIG=
UUDD 211730Z 15006MPS CAVOK M10/M12 Q1026 64010060 14010060 NOSIG=
UUDD 211700Z 15006MPS CAVOK M10/M12 Q1026 64010060 14010060 NOSIG=
UUDD 211630Z 15006MPS CAVOK M10/M12 Q1025 64010060 14010060 NOSIG=
UUDD 211600Z 15005MPS CAVOK M10/M12 Q1025 64010060 14010060 NOSIG=
UUDD 211530Z 16006MPS CAVOK M10/M12 Q1025 64010060 14010060 NOSIG=
UUDD 211500Z 15007MPS CAVOK M09/M11 Q1025 64010060 14010060 NOSIG=
UUDD 211430Z 15006MPS CAVOK M09/M12 Q1025 64010060 14010060 NOSIG=
UUDD 211400Z 14004MPS CAVOK M09/M12 Q1025 64010060 14010060 NOSIG=
UUDD 211330Z 15005MPS CAVOK M08/M12 Q1025 64010060 14010060 NOSIG=
UUDD 211300Z 15005MPS CAVOK M08/M12 Q1025 64010060 14010060 NOSIG=
UUDD 211230Z 15006MPS CAVOK M07/M12 Q1025 64010060 14010060 NOSIG=
UUDD 211200Z 15006MPS CAVOK M07/M12 Q1024 64010060 14010060 NOSIG=
UUDD 211130Z 14006MPS CAVOK M08/M12 Q1024 64010060 14010060 NOSIG=
UUDD 211100Z 15007MPS CAVOK M08/M12 Q1024 64010060 14010060 NOSIG=
UUDD 211030Z 15007MPS CAVOK M07/M11 Q1024 64010060 14010060 NOSIG=
UUDD 211000Z 15006MPS CAVOK M07/M12 Q1024 64010060 14010060 NOSIG=
UUDD 210930Z 15007MPS CAVOK M08/M12 Q1024 64010060 14010060 NOSIG=
UUDD 210900Z 15006MPS CAVOK M09/M12 Q1024 64010060 14010060 NOSIG=
UUDD 210830Z 14007MPS CAVOK M09/M12 Q1024 64010060 14010060 NOSIG=
UUDD 210800Z 14005MPS CAVOK M10/M12 Q1024 64010060 14010060 NOSIG=
UUDD 210730Z 14005MPS CAVOK M10/M13 Q1024 64010060 14010060 NOSIG=
UUDD 210700Z 14005MPS CAVOK M11/M13 Q1024 64010060 14010060 NOSIG=
UUDD 210630Z 14005MPS CAVOK M11/M13 Q1024 64010060 14010060 NOSIG=
UUDD 210600Z 14005MPS CAVOK M11/M13 Q1023 64010060 14150060 NOSIG=

LESS
Участник

Приокский лесс на юге МО
# Дата: 23 Янв 2009 16:30


Весь день сегодня по всем срокам ( 6:00, 9:00, 12:00 и 15:00 МСК) метеостанция в г.Кашире остаётся полюсом холода в МО. Да, с ошибочкой что-то там установлено (или оборудование с приборной ошибкой, или сама метеостанция с орографической ошибкой).

Кстати сказать, метеостанция там расположена на одном из самых высоких холмов в районе (224 метра, и это при том, что урез Оки в этом месте 107 м над ур.моря). Может быть, с подъёмом Твозд и падает на 1* на каждые 100 метров (шукта). Кстати, это для сухой адиабаты или для влажной?

Shadow
Участник

Санкт-Петербург
# Дата: 23 Янв 2009 16:50


LESS
Да сегодня чем южнее, тем холоднее (по крайней мере с утра). Даже в Москве и на большинстве станций МО в течение дня немного похолодало.

Doof
Участник

МО. Тучково
# Дата: 23 Янв 2009 17:11


LESS
метеостанция в г.Кашире остаётся полюсом холода в МО. Да, с ошибочкой что-то там установлено

В Узловой, например, с утра стабильно держится морозец -2°, в Туле чуть ниже -1°, а в Рязани с полуночи стабильно холодает, сейчас уже -2.3°. Так что юг области сейчас действительно может быть полюсом холода.

LESS
Участник

Приокский лесс на юге МО
# Дата: 24 Янв 2009 14:16


Doof
Shadow

Да, адвекция холода с Черноземья, о которой вчера говорил Корвус, внесла свои коррективы.

Однако, про Твозд на высоте 224 метра в г.Кашира мы ещё, надеюсь, поговорим на страницах форума.

LESS
Участник

Приокский лесс на юге МО
# Дата: 9 Фев 2009 16:47


На юге МО Твозд сегодня весь день была слабоположительной, и только на 15 МСК ушла "в минус" ( -0.4* С).

Doof
Участник

МО. Тучково
# Дата: 9 Фев 2009 23:34


LESS
Однако, про Твозд на высоте 224 метра в г.Кашира

Кстати, моя квартира с заоконным термометром расположена примерно на такой же высоте :-)

LESS
Участник

Приокский лесс на юге МО
# Дата: 10 Фев 2009 11:24


Doof

А на какой высоте н.у.м. расположен нулевой уровень фундамента Вашего дома?

Doof
Участник

МО. Тучково
# Дата: 10 Фев 2009 11:33


LESS

Примерно 200-205 метров

LESS
Участник

Приокский лесс на юге МО
# Дата: 10 Фев 2009 12:14


Doof

Вот. А у нас там перепад сто с лишним метров при горизонтальном удалении менее 1 км (урез р.Оки в этом месте 107 метров н.у.м., а высота холма 224 метра н.у.м.).

<< . 1 . 2 . 3 . 4 . 5 . 6 . 7 . 8 . 9 . 10 ... 53 . 54 . >>
Ваш ответ

          Отменить *Что это?

 » Логин  » Пароль 
 
 


Поддержка: miniBB forum software © 2001-2024